createdAt,value
2023-05-12T00:01:21.135Z,2.42
2023-05-12T00:03:50.606Z,0.65
2023-05-12T00:06:18.503Z,1.10
2023-05-12T00:08:46.431Z,1.50
2023-05-12T00:11:14.526Z,1.15
2023-05-12T00:13:42.537Z,1.17
2023-05-12T00:16:10.756Z,1.30
2023-05-12T00:18:40.114Z,1.52
2023-05-12T00:21:12.237Z,1.10
2023-05-12T00:23:40.313Z,1.13
2023-05-12T00:26:08.488Z,1.67
2023-05-12T00:28:36.477Z,1.10
2023-05-12T00:31:05.071Z,1.00
2023-05-12T00:33:33.346Z,1.25
2023-05-12T00:36:04.258Z,1.48
2023-05-12T00:38:34.003Z,1.75
2023-05-12T00:41:02.739Z,1.73
2023-05-12T00:43:31.552Z,1.08
2023-05-12T00:45:59.742Z,1.83
2023-05-12T00:48:28.076Z,1.58
2023-05-12T00:50:57.141Z,1.05
2023-05-12T00:53:32.571Z,2.22
2023-05-12T00:56:08.839Z,1.55
2023-05-12T00:58:36.793Z,1.58
2023-05-12T01:01:04.904Z,2.03
2023-05-12T01:03:33.362Z,1.23
2023-05-12T01:06:07.684Z,0.75
2023-05-12T01:08:38.351Z,1.33
2023-05-12T01:11:06.492Z,0.75
2023-05-12T01:13:34.620Z,0.90
2023-05-12T01:16:04.180Z,1.38
2023-05-12T01:18:34.606Z,2.63
2023-05-12T01:21:06.943Z,1.75
2023-05-12T01:23:43.810Z,1.30
2023-05-12T01:26:13.461Z,3.03
2023-05-12T01:28:41.827Z,3.60
2023-05-12T01:31:10.605Z,3.58
2023-05-12T01:33:39.839Z,3.35
2023-05-12T01:36:08.123Z,3.28
2023-05-12T01:38:36.143Z,3.55
2023-05-12T01:41:05.213Z,3.42
2023-05-12T01:43:34.538Z,3.88
2023-05-12T01:46:02.536Z,2.55
2023-05-12T01:48:30.457Z,2.60
2023-05-12T01:51:00.846Z,2.13
2023-05-12T01:53:28.822Z,3.83
2023-05-12T01:55:56.794Z,2.78
2023-05-12T01:58:24.951Z,2.83
2023-05-12T02:00:54.236Z,4.22
2023-05-12T02:03:22.245Z,2.35
2023-05-12T02:05:50.287Z,3.58
2023-05-12T02:08:18.238Z,3.42
2023-05-12T02:10:46.817Z,2.88
2023-05-12T02:13:15.475Z,2.40
2023-05-12T02:15:43.420Z,4.55
2023-05-12T02:18:12.668Z,3.22
2023-05-12T02:20:40.600Z,1.58
2023-05-12T02:23:08.529Z,3.95
2023-05-12T02:25:36.619Z,1.75
2023-05-12T02:28:04.792Z,2.55
2023-05-12T02:30:32.732Z,2.08
2023-05-12T02:33:01.322Z,2.00
2023-05-12T02:35:30.646Z,1.45
2023-05-12T02:37:58.873Z,2.47
2023-05-12T02:40:27.391Z,2.08
2023-05-12T02:42:55.741Z,1.65
2023-05-12T02:45:23.789Z,3.15
2023-05-12T02:47:51.769Z,2.42
2023-05-12T02:50:20.714Z,2.08
2023-05-12T02:52:50.479Z,2.85
2023-05-12T02:55:18.766Z,2.55
2023-05-12T02:57:47.137Z,3.65
2023-05-12T03:00:16.466Z,3.40
2023-05-12T03:02:44.516Z,4.85
2023-05-12T03:05:12.513Z,4.22
2023-05-12T03:07:40.522Z,6.35
2023-05-12T03:10:11.046Z,4.90
2023-05-12T03:12:39.402Z,4.03
2023-05-12T03:15:08.893Z,7.82
2023-05-12T03:17:37.120Z,4.25
2023-05-12T03:20:08.381Z,4.53
2023-05-12T03:22:36.506Z,5.05
2023-05-12T03:25:05.328Z,3.90
2023-05-12T03:27:34.747Z,5.07
2023-05-12T03:30:05.069Z,6.10
2023-05-12T03:32:33.036Z,4.07
2023-05-12T03:35:01.148Z,4.93
2023-05-12T03:37:29.076Z,4.70
2023-05-12T03:39:57.182Z,5.20
2023-05-12T03:42:25.506Z,4.82
2023-05-12T03:44:54.846Z,4.63
2023-05-12T03:47:23.208Z,4.85
2023-05-12T03:49:51.274Z,5.68
2023-05-12T03:52:19.562Z,5.45
2023-05-12T03:54:47.493Z,5.80
2023-05-12T03:57:15.525Z,6.18
2023-05-12T03:59:43.689Z,5.20
2023-05-12T04:02:13.209Z,4.47
2023-05-12T04:04:41.256Z,5.22
2023-05-12T04:07:09.157Z,3.38
2023-05-12T04:09:37.162Z,4.10
2023-05-12T04:12:06.174Z,3.45
2023-05-12T04:14:42.157Z,2.67
2023-05-12T04:17:12.343Z,2.80
2023-05-12T04:19:40.290Z,3.55
2023-05-12T04:22:08.213Z,4.32
2023-05-12T04:24:38.452Z,2.47
2023-05-12T04:27:07.230Z,3.67
2023-05-12T04:29:35.292Z,2.65
2023-05-12T04:32:04.085Z,2.60
2023-05-12T04:34:33.467Z,2.90
2023-05-12T04:37:01.534Z,5.20
2023-05-12T04:39:30.551Z,2.60
2023-05-12T04:41:58.554Z,3.60
2023-05-12T04:44:26.642Z,2.33
2023-05-12T04:46:56.298Z,3.58
2023-05-12T04:49:24.578Z,1.70
2023-05-12T04:51:54.014Z,4.13
2023-05-12T04:54:22.026Z,2.50
2023-05-12T04:56:49.961Z,2.67
2023-05-12T04:59:17.984Z,4.45
2023-05-12T05:01:49.330Z,2.97
2023-05-12T05:04:17.408Z,2.30
2023-05-12T05:06:48.539Z,3.90
2023-05-12T05:11:49.170Z,2.88
2023-05-12T05:14:17.081Z,2.40
2023-05-12T05:16:46.060Z,3.15
2023-05-12T05:19:23.432Z,3.00
2023-05-12T05:22:05.556Z,3.60
2023-05-12T05:24:35.067Z,3.78
2023-05-12T05:27:03.429Z,3.90
2023-05-12T05:29:31.565Z,3.28
2023-05-12T05:31:59.764Z,5.63
2023-05-12T05:34:32.903Z,3.55
2023-05-12T05:37:01.079Z,3.40
2023-05-12T05:39:30.777Z,4.32
2023-05-12T05:42:00.157Z,3.60
2023-05-12T05:44:31.926Z,2.40
2023-05-12T05:47:03.940Z,3.83
2023-05-12T05:49:31.991Z,4.03
2023-05-12T05:52:00.088Z,2.47
2023-05-12T05:54:28.167Z,4.22
2023-05-12T05:56:56.460Z,2.05
2023-05-12T05:59:25.761Z,4.55
2023-05-12T06:01:53.854Z,5.63
2023-05-12T06:04:22.137Z,4.32
2023-05-12T06:07:03.993Z,5.03
2023-05-12T06:09:33.019Z,5.25
2023-05-12T06:12:05.237Z,3.90
2023-05-12T06:14:34.657Z,3.92
2023-05-12T06:17:02.796Z,4.05
2023-05-12T06:19:31.116Z,4.53
2023-05-12T06:21:59.465Z,3.42
2023-05-12T06:24:27.572Z,3.58
2023-05-12T06:26:55.638Z,3.95
2023-05-12T06:29:23.689Z,4.57
2023-05-12T06:31:53.054Z,3.70
2023-05-12T06:34:21.376Z,4.53
2023-05-12T06:36:49.523Z,3.22
2023-05-12T06:39:17.578Z,4.10
2023-05-12T06:41:45.591Z,3.38
2023-05-12T06:44:13.871Z,3.55
2023-05-12T06:46:42.016Z,5.50
2023-05-12T06:49:11.683Z,3.63
2023-05-12T06:51:39.732Z,3.33
2023-05-12T06:54:07.718Z,3.83
2023-05-12T06:56:35.734Z,3.33
2023-05-12T06:59:04.797Z,3.78
2023-05-12T07:01:34.209Z,2.28
2023-05-12T07:04:02.360Z,3.35
2023-05-12T07:06:32.173Z,1.50
2023-05-12T07:09:00.152Z,3.42
2023-05-12T07:11:28.204Z,3.78
2023-05-12T07:13:56.480Z,3.15
2023-05-12T07:16:24.531Z,2.17
2023-05-12T07:18:53.011Z,1.92
2023-05-12T07:21:23.216Z,2.80
2023-05-12T07:23:54.010Z,2.00
2023-05-12T07:26:24.168Z,2.13
2023-05-12T07:28:52.821Z,1.77
2023-05-12T07:31:20.883Z,2.28
2023-05-12T07:33:48.923Z,1.77
2023-05-12T07:36:16.936Z,1.95
2023-05-12T07:38:44.929Z,1.83
2023-05-12T07:41:14.365Z,1.63
2023-05-12T07:43:42.407Z,1.83
2023-05-12T07:46:10.465Z,1.42
2023-05-12T07:48:40.678Z,1.35
2023-05-12T07:51:09.230Z,2.67
2023-05-12T07:53:37.688Z,1.85
2023-05-12T07:56:08.034Z,2.20
2023-05-12T07:58:40.678Z,2.25
2023-05-12T08:01:10.339Z,2.40
2023-05-12T08:03:38.404Z,1.52
2023-05-12T08:06:07.403Z,1.58
2023-05-12T08:08:36.547Z,2.03
2023-05-12T08:11:04.888Z,2.25
2023-05-12T08:13:33.094Z,1.42
2023-05-12T08:16:02.430Z,2.00
2023-05-12T08:18:30.749Z,2.25
2023-05-12T08:20:59.063Z,3.20
2023-05-12T08:23:27.182Z,2.42
2023-05-12T08:25:55.320Z,3.65
2023-05-12T08:28:23.345Z,3.88
2023-05-12T08:30:51.884Z,2.53
2023-05-12T08:34:15.826Z,2.45
2023-05-12T08:36:46.661Z,3.13
2023-05-12T08:39:14.993Z,2.38
2023-05-12T08:41:45.630Z,1.35
2023-05-12T08:44:14.073Z,2.15
2023-05-12T08:46:43.234Z,2.53
2023-05-12T08:49:16.452Z,1.55
2023-05-12T08:51:52.009Z,2.65
2023-05-12T08:54:27.818Z,3.00
2023-05-12T08:59:27.540Z,1.95
2023-05-12T09:01:56.399Z,2.63
2023-05-12T09:04:25.954Z,3.58
2023-05-12T09:06:55.869Z,5.63
2023-05-12T09:09:26.165Z,2.72
2023-05-12T09:11:58.543Z,1.73
2023-05-12T09:14:27.388Z,3.00
2023-05-12T09:17:01.348Z,2.92
2023-05-12T09:19:31.398Z,3.65
2023-05-12T09:21:59.848Z,2.60
2023-05-12T09:24:36.385Z,3.85
2023-05-12T09:27:08.364Z,3.22
2023-05-12T09:29:42.484Z,2.42
2023-05-12T09:32:19.839Z,3.15
2023-05-12T09:34:52.947Z,2.70
2023-05-12T09:37:20.918Z,2.22
2023-05-12T09:39:49.284Z,3.20
2023-05-12T09:42:17.346Z,3.28
2023-05-12T09:44:46.825Z,2.08
2023-05-12T09:47:16.971Z,3.83
2023-05-12T09:49:53.102Z,2.33
2023-05-12T09:52:22.538Z,2.30
2023-05-12T09:54:52.632Z,4.20
2023-05-12T09:57:23.783Z,2.45
2023-05-12T10:02:21.066Z,3.95
2023-05-12T10:04:53.708Z,2.58
2023-05-12T10:07:24.590Z,2.08
2023-05-12T10:09:52.883Z,2.50
2023-05-12T10:12:20.830Z,2.88
2023-05-12T10:14:49.868Z,3.38
2023-05-12T10:17:20.116Z,2.55
2023-05-12T10:19:50.310Z,3.63
2023-05-12T10:22:21.735Z,2.67
2023-05-12T10:24:50.817Z,2.42
2023-05-12T10:27:20.059Z,4.28
2023-05-12T10:29:49.664Z,2.35
2023-05-12T10:32:19.055Z,5.05
2023-05-12T10:34:47.206Z,2.90
2023-05-12T10:37:16.747Z,3.85
2023-05-12T10:39:49.222Z,2.35
2023-05-12T10:42:18.941Z,3.00
2023-05-12T10:44:51.853Z,2.70
2023-05-12T10:47:20.588Z,3.45
2023-05-12T10:49:48.550Z,3.67
2023-05-12T10:52:21.172Z,3.35
2023-05-12T10:54:49.066Z,2.45
2023-05-12T10:57:20.645Z,2.08
2023-05-12T10:59:50.332Z,2.45
2023-05-12T11:02:21.865Z,3.08
2023-05-12T11:04:52.755Z,3.00
2023-05-12T11:07:26.646Z,6.22
2023-05-12T11:09:59.388Z,2.55
2023-05-12T11:12:32.259Z,2.35
2023-05-12T11:17:29.103Z,4.18
2023-05-12T11:19:57.261Z,3.08
2023-05-12T11:22:26.746Z,3.40
2023-05-12T11:24:55.149Z,3.20
2023-05-12T11:27:24.329Z,4.10
2023-05-12T11:29:59.572Z,3.28
2023-05-12T11:32:28.234Z,3.00
2023-05-12T11:34:56.363Z,2.45
2023-05-12T11:37:25.746Z,2.45
2023-05-12T11:39:53.733Z,4.07
2023-05-12T11:42:23.683Z,4.38
2023-05-12T11:44:55.295Z,3.83
2023-05-12T11:47:23.315Z,3.00
2023-05-12T11:49:52.827Z,2.60
2023-05-12T11:52:23.015Z,2.58
2023-05-12T11:54:54.371Z,3.03
2023-05-12T11:57:32.625Z,2.47
2023-05-12T12:00:03.377Z,2.47
2023-05-12T12:02:33.500Z,3.83
2023-05-12T12:05:01.788Z,2.80
2023-05-12T12:07:31.826Z,3.60
2023-05-12T12:10:12.219Z,3.33
2023-05-12T12:12:40.477Z,3.33
2023-05-12T12:15:10.171Z,2.25
2023-05-12T12:17:38.497Z,2.42
2023-05-12T12:20:09.192Z,3.40
2023-05-12T12:22:37.434Z,2.58
2023-05-12T12:25:08.013Z,2.60
2023-05-12T12:27:36.011Z,3.15
2023-05-12T12:30:04.453Z,2.60
2023-05-12T12:32:32.542Z,1.90
2023-05-12T12:35:03.884Z,2.50
2023-05-12T12:37:32.201Z,2.50
2023-05-12T12:40:08.499Z,2.47
2023-05-12T12:42:39.606Z,4.60
2023-05-12T12:45:09.888Z,2.60
2023-05-12T12:47:38.813Z,4.30
2023-05-12T12:50:09.573Z,2.53
2023-05-12T12:52:38.567Z,3.13
2023-05-12T12:55:08.096Z,4.00
2023-05-12T12:57:37.770Z,2.92
2023-05-12T13:00:08.671Z,2.92
2023-05-12T13:02:37.213Z,4.22
2023-05-12T13:05:09.399Z,3.15
2023-05-12T13:07:37.752Z,3.25
2023-05-12T13:10:06.717Z,3.97
2023-05-12T13:12:34.850Z,4.72
2023-05-12T13:15:07.269Z,2.42
2023-05-12T13:17:35.315Z,4.15
2023-05-12T13:20:03.983Z,4.40
2023-05-12T13:22:32.021Z,3.35
2023-05-12T13:25:00.905Z,4.10
2023-05-12T13:27:28.966Z,2.88
2023-05-12T13:29:56.881Z,3.22
2023-05-12T13:32:26.471Z,3.08
2023-05-12T13:34:54.716Z,2.30
2023-05-12T13:37:22.980Z,4.55
2023-05-12T13:39:50.953Z,1.90
2023-05-12T13:42:18.958Z,2.60
2023-05-12T13:44:47.400Z,2.40
2023-05-12T13:47:15.392Z,2.67
2023-05-12T13:49:44.768Z,1.75
2023-05-12T13:52:12.759Z,3.08
2023-05-12T13:54:40.719Z,1.95
2023-05-12T13:57:08.875Z,1.95
2023-05-12T13:59:37.009Z,2.08
2023-05-12T14:02:05.674Z,1.63
2023-05-12T14:04:33.753Z,2.05
2023-05-12T14:07:03.796Z,1.05
2023-05-12T14:09:31.902Z,2.22
2023-05-12T14:12:00.224Z,1.33
2023-05-12T14:14:28.370Z,1.17
2023-05-12T14:16:56.307Z,1.17
2023-05-12T14:19:24.285Z,0.77
2023-05-12T14:21:52.293Z,1.00
2023-05-12T14:24:21.662Z,0.70
2023-05-12T14:26:49.662Z,1.40
2023-05-12T14:29:17.793Z,2.45
2023-05-12T14:31:45.853Z,1.40
2023-05-12T14:34:14.118Z,1.60
2023-05-12T14:36:42.112Z,1.67
2023-05-12T14:39:10.115Z,1.85
2023-05-12T14:41:39.878Z,0.70
2023-05-12T14:44:07.894Z,1.08
2023-05-12T14:46:35.828Z,0.95
2023-05-12T14:49:05.393Z,2.20
2023-05-12T14:51:33.754Z,1.02
2023-05-12T14:54:01.759Z,1.58
2023-05-12T14:56:29.735Z,0.55
2023-05-12T14:58:59.453Z,0.80
2023-05-12T15:01:28.130Z,0.70
2023-05-12T15:03:56.536Z,1.63
2023-05-12T15:06:24.594Z,0.40
2023-05-12T15:08:52.546Z,2.75
2023-05-12T15:11:21.614Z,1.00
2023-05-12T15:13:49.653Z,0.70
2023-05-12T15:16:19.259Z,0.32
2023-05-12T15:18:47.408Z,0.40
2023-05-12T15:21:15.538Z,0.95
2023-05-12T15:23:44.058Z,1.77
2023-05-12T15:28:42.854Z,0.57
2023-05-12T15:31:10.981Z,0.50
2023-05-12T15:33:40.560Z,0.93
2023-05-12T15:36:11.028Z,1.02
2023-05-12T15:38:39.591Z,0.73
2023-05-12T15:41:07.521Z,0.45
2023-05-12T15:43:38.382Z,1.20
2023-05-12T15:46:10.873Z,1.05
2023-05-12T15:48:40.502Z,0.60
2023-05-12T15:51:09.066Z,0.60
2023-05-12T15:53:37.358Z,0.63
2023-05-12T15:56:07.273Z,0.80
2023-05-12T15:58:35.379Z,0.35
2023-05-12T16:01:05.870Z,0.88
2023-05-12T16:03:33.919Z,0.85
2023-05-12T16:06:03.837Z,1.00
2023-05-12T16:08:31.789Z,2.28
2023-05-12T16:11:00.545Z,0.93
2023-05-12T16:13:28.523Z,0.50
2023-05-12T16:15:56.655Z,0.50
2023-05-12T16:18:24.644Z,0.30
2023-05-12T16:20:52.874Z,0.40
2023-05-12T16:23:22.186Z,0.90
2023-05-12T16:25:50.184Z,0.50
2023-05-12T16:28:18.212Z,0.50
2023-05-12T16:30:46.405Z,0.85
2023-05-12T16:33:14.753Z,0.47
2023-05-12T16:35:42.836Z,0.50
2023-05-12T16:38:10.745Z,0.55
2023-05-12T16:40:40.483Z,1.20
2023-05-12T16:43:08.367Z,0.80
2023-05-12T16:45:36.277Z,0.40
2023-05-12T16:48:07.367Z,0.85
2023-05-12T16:53:04.311Z,0.40
2023-05-12T16:55:32.274Z,0.57
2023-05-12T16:58:01.653Z,0.43
2023-05-12T17:00:29.592Z,0.40
2023-05-12T17:02:57.607Z,0.30
2023-05-12T17:05:25.804Z,0.50
2023-05-12T17:07:53.813Z,0.35
2023-05-12T17:10:21.760Z,0.65
2023-05-12T17:12:49.861Z,1.00
2023-05-12T17:15:19.383Z,0.30
2023-05-12T17:17:48.345Z,0.68
2023-05-12T17:20:16.682Z,0.50
2023-05-12T17:22:47.336Z,0.40
2023-05-12T17:25:17.326Z,0.40
2023-05-12T17:27:45.235Z,0.35
2023-05-12T17:30:13.835Z,0.57
2023-05-12T17:32:43.625Z,0.40
2023-05-12T17:35:11.964Z,0.52
2023-05-12T17:37:40.332Z,0.65
2023-05-12T17:40:09.622Z,0.20
2023-05-12T17:42:37.598Z,1.67
2023-05-12T17:45:06.656Z,0.40
2023-05-12T17:47:34.800Z,0.52
2023-05-12T17:50:04.860Z,0.30
2023-05-12T17:52:32.854Z,0.40
2023-05-12T17:55:01.138Z,0.77
2023-05-12T17:57:29.600Z,0.32
2023-05-12T17:59:57.739Z,0.30
2023-05-12T18:02:25.828Z,0.20
2023-05-12T18:04:53.929Z,0.20
2023-05-12T18:07:23.464Z,0.93
2023-05-12T18:09:53.876Z,0.95
2023-05-12T18:12:21.914Z,0.40
2023-05-12T18:14:50.365Z,0.85
2023-05-12T18:17:18.310Z,1.02
2023-05-12T18:19:46.357Z,0.30
2023-05-12T18:22:16.813Z,0.30
2023-05-12T18:24:46.366Z,0.30
2023-05-12T18:27:14.346Z,0.70
2023-05-12T18:29:42.410Z,0.30
2023-05-12T18:32:11.163Z,0.32
2023-05-12T18:34:39.418Z,0.38
2023-05-12T18:37:07.549Z,0.30
2023-05-12T18:39:35.561Z,0.85
2023-05-12T18:42:05.461Z,0.30
2023-05-12T18:44:33.463Z,1.02
2023-05-12T18:47:01.634Z,0.45
2023-05-12T18:49:30.584Z,0.55
2023-05-12T18:51:58.535Z,0.10
2023-05-12T18:54:26.538Z,0.35
2023-05-12T18:56:54.923Z,0.20
2023-05-12T18:59:24.395Z,0.30
2023-05-12T19:01:52.635Z,0.43
2023-05-12T19:04:21.963Z,0.38
2023-05-12T19:06:50.131Z,0.40
2023-05-12T19:09:18.188Z,0.32
2023-05-12T19:11:46.832Z,0.20
2023-05-12T19:14:15.914Z,0.43
2023-05-12T19:16:46.701Z,0.63
2023-05-12T19:19:14.933Z,1.73
2023-05-12T19:21:42.971Z,0.25
2023-05-12T19:24:11.200Z,0.68
2023-05-12T19:26:39.336Z,3.40
2023-05-12T19:29:07.259Z,0.45
2023-05-12T19:31:36.041Z,0.95
2023-05-12T19:34:08.673Z,0.77
2023-05-12T19:36:37.097Z,1.00
2023-05-12T19:39:05.342Z,0.40
2023-05-12T19:41:33.643Z,0.20
2023-05-12T19:44:01.650Z,0.52
2023-05-12T19:46:30.577Z,0.95
2023-05-12T19:48:58.592Z,0.65
2023-05-12T19:51:28.095Z,0.40
2023-05-12T19:53:56.061Z,0.52
2023-05-12T19:56:24.131Z,0.30
2023-05-12T19:58:52.459Z,0.32
2023-05-12T20:01:20.674Z,0.30
2023-05-12T20:03:48.753Z,0.20
2023-05-12T20:06:17.714Z,0.30
2023-05-12T20:08:47.113Z,0.28
2023-05-12T20:11:15.071Z,1.42
2023-05-12T20:13:43.054Z,0.35
2023-05-12T20:16:11.225Z,0.30
2023-05-12T20:18:39.213Z,0.30
2023-05-12T20:21:07.219Z,1.08
2023-05-12T20:23:35.430Z,0.70
2023-05-12T20:26:06.425Z,0.52
2023-05-12T20:28:34.454Z,0.20
2023-05-12T20:31:02.699Z,0.20
2023-05-12T20:33:30.831Z,0.30
2023-05-12T20:35:58.771Z,0.90
2023-05-12T20:38:26.793Z,0.35
2023-05-12T20:40:54.717Z,0.30
2023-05-12T20:43:24.076Z,0.50
2023-05-12T20:45:52.337Z,0.32
2023-05-12T20:48:20.709Z,1.13
2023-05-12T20:50:49.885Z,0.52
2023-05-12T20:53:17.949Z,2.83
2023-05-12T20:55:45.919Z,0.93
2023-05-12T20:58:13.984Z,1.00
2023-05-12T21:00:43.616Z,0.80
2023-05-12T21:03:15.121Z,0.50
2023-05-12T21:05:47.583Z,1.08
2023-05-12T21:08:15.991Z,0.57
2023-05-12T21:10:43.983Z,0.82
2023-05-12T21:13:12.287Z,0.32
2023-05-12T21:15:41.189Z,0.68
2023-05-12T21:18:10.699Z,0.30
2023-05-12T21:20:38.829Z,0.95
2023-05-12T21:23:11.630Z,0.50
2023-05-12T21:25:39.880Z,0.65
2023-05-12T21:28:07.952Z,0.40
2023-05-12T21:30:37.213Z,1.05
2023-05-12T21:33:07.916Z,0.40
2023-05-12T21:35:37.428Z,1.25
2023-05-12T21:38:08.523Z,0.35
2023-05-12T21:43:05.075Z,0.57
2023-05-12T21:45:33.734Z,0.60
2023-05-12T21:48:02.010Z,1.10
2023-05-12T21:50:30.290Z,0.70
2023-05-12T21:52:59.687Z,0.85
2023-05-12T21:55:31.799Z,0.77
2023-05-12T21:57:59.776Z,1.92
2023-05-12T22:00:27.775Z,0.73
2023-05-12T22:02:55.874Z,0.50
2023-05-12T22:05:24.296Z,1.13
2023-05-12T22:07:52.218Z,0.73
2023-05-12T22:10:22.148Z,0.73
2023-05-12T22:12:50.386Z,0.85
2023-05-12T22:15:18.701Z,1.33
2023-05-12T22:17:47.808Z,0.77
2023-05-12T22:20:16.679Z,0.55
2023-05-12T22:22:44.740Z,0.60
2023-05-12T22:25:12.696Z,2.63
2023-05-12T22:27:42.199Z,0.30
2023-05-12T22:30:11.336Z,0.52
2023-05-12T22:32:39.369Z,0.50
2023-05-12T22:35:08.669Z,0.47
2023-05-12T22:37:36.673Z,0.38
2023-05-12T22:40:05.092Z,0.70
2023-05-12T22:42:32.992Z,0.40
2023-05-12T22:45:04.792Z,2.05
2023-05-12T22:47:32.914Z,3.72
2023-05-12T22:50:01.499Z,0.50
2023-05-12T22:52:29.741Z,0.60
2023-05-12T22:54:57.773Z,1.02
2023-05-12T22:57:25.937Z,0.90
2023-05-12T22:59:53.883Z,1.23
2023-05-12T23:02:23.286Z,0.50
2023-05-12T23:04:51.292Z,1.50
2023-05-12T23:07:19.250Z,1.92
2023-05-12T23:09:47.237Z,1.40
2023-05-12T23:12:15.695Z,0.40
2023-05-12T23:14:43.628Z,0.93
2023-05-12T23:17:11.899Z,0.57
2023-05-12T23:19:41.391Z,0.93
2023-05-12T23:22:09.427Z,1.70
2023-05-12T23:24:38.160Z,0.80
2023-05-12T23:27:09.048Z,0.82
2023-05-12T23:29:37.113Z,0.57
2023-05-12T23:32:08.745Z,0.95
2023-05-12T23:34:40.316Z,0.30
2023-05-12T23:37:09.826Z,4.78
2023-05-12T23:39:37.889Z,0.60
2023-05-12T23:42:06.944Z,1.08
2023-05-12T23:44:36.237Z,0.60
2023-05-12T23:47:06.380Z,1.35
2023-05-12T23:49:34.545Z,0.98
2023-05-12T23:52:02.790Z,0.95
2023-05-12T23:54:32.156Z,0.50
2023-05-12T23:57:00.152Z,1.25
2023-05-12T23:59:28.273Z,0.80
